Time;durP1;ratioP1;P1;durP2;ratioP2;P2;SDS_P1;SDS_P2;PMS_P1;PMS_P2;Temp;Humidity;BMP_temperature;BMP_pressure;BME280_temperature;BME280_humidity;BME280_pressure;Samples;Min_cycle;Max_cycle;Signal;HPM_P1;HPM_P2
2022/02/08 00:01:30;;;;;;;28.50;8.05;;;6.70;91.10;;;;;;6175594;23;20020;-88
2022/02/08 00:03:56;;;;;;;25.67;7.65;;;6.70;91.10;;;;;;6195299;23;20321;-88
2022/02/08 00:09:25;;;;;;;27.25;7.03;;;6.70;91.20;;;;;;6177113;23;20020;-88
2022/02/08 00:11:51;;;;;;;20.35;7.72;;;6.70;91.30;;;;;;6196842;23;20092;-88
2022/02/08 00:14:17;;;;;;;26.38;8.02;;;6.80;91.40;;;;;;6195830;23;20024;-88
2022/02/08 00:16:46;;;;;;;29.02;8.75;;;6.70;91.40;;;;;;6171633;23;20023;-90
2022/02/08 00:19:15;;;;;;;26.08;9.32;;;6.80;91.50;;;;;;6195439;23;20024;-88
2022/02/08 00:21:47;;;;;;;26.42;7.90;;;6.70;91.60;;;;;;6171497;23;20020;-87
2022/02/08 00:24:27;;;;;;;23.60;8.27;;;6.80;91.80;;;;;;6195824;23;20027;-89
2022/02/08 00:26:54;;;;;;;27.88;8.63;;;6.80;91.80;;;;;;6172764;23;20090;-88
2022/02/08 00:29:22;;;;;;;31.50;9.27;;;6.80;91.90;;;;;;6196258;23;20307;-88
2022/02/08 00:31:50;;;;;;;28.88;8.68;;;6.80;92.00;;;;;;6171705;23;20079;-89
2022/02/08 00:34:22;;;;;;;20.50;7.80;;;6.80;92.00;;;;;;6171378;23;20021;-88
2022/02/08 00:36:50;;;;;;;27.33;9.10;;;6.90;92.20;;;;;;6196732;23;20075;-88
2022/02/08 00:39:32;;;;;;;29.55;9.38;;;6.90;92.30;;;;;;6173625;23;20055;-90
2022/02/08 00:42:06;;;;;;;30.85;10.23;;;6.90;92.30;;;;;;6171491;23;20021;-88
2022/02/08 00:44:45;;;;;;;38.55;11.10;;;6.90;92.40;;;;;;6124241;23;20094;-90
2022/02/08 00:47:23;;;;;;;25.10;9.85;;;6.90;92.50;;;;;;6151999;23;20041;-90
2022/02/08 00:49:49;;;;;;;42.67;11.18;;;6.90;92.60;;;;;;6149282;23;20079;-87
2022/02/08 00:52:20;;;;;;;36.65;10.43;;;6.90;92.70;;;;;;6171337;23;20382;-89
2022/02/08 00:54:56;;;;;;;28.50;10.18;;;6.90;92.80;;;;;;6147642;23;20095;-88
2022/02/08 00:57:25;;;;;;;38.92;11.15;;;7.00;92.90;;;;;;6125936;23;20020;-88
2022/02/08 00:59:53;;;;;;;27.00;9.82;;;7.00;93.00;;;;;;6172283;23;20062;-88
2022/02/08 01:02:21;;;;;;;33.92;12.15;;;7.00;93.10;;;;;;6170928;23;20032;-88
2022/02/08 01:04:53;;;;;;;30.45;10.95;;;7.00;93.20;;;;;;6196336;23;20012;-88
2022/02/08 01:07:19;;;;;;;32.87;12.07;;;7.00;93.30;;;;;;6148914;23;20063;-89
2022/02/08 01:09:59;;;;;;;28.35;10.50;;;7.00;93.40;;;;;;6146883;23;20024;-88
2022/02/08 01:12:28;;;;;;;33.75;12.07;;;7.00;93.40;;;;;;6149581;23;20096;-89
2022/02/08 01:14:55;;;;;;;25.23;11.70;;;7.10;93.40;;;;;;6171339;23;20107;-89
2022/02/08 01:17:22;;;;;;;31.77;13.32;;;7.10;93.60;;;;;;6220500;23;20020;-91
2022/02/08 01:19:55;;;;;;;34.25;12.68;;;7.10;93.70;;;;;;6171218;23;20059;-89
2022/02/08 01:22:21;;;;;;;37.00;13.00;;;7.10;93.80;;;;;;6173308;23;20044;-89
2022/02/08 01:24:51;;;;;;;25.75;13.27;;;7.10;93.90;;;;;;6173188;23;20012;-92
2022/02/08 01:27:27;;;;;;;27.25;14.15;;;7.20;94.00;;;;;;6196777;23;20048;-91
2022/02/08 01:29:59;;;;;;;35.20;14.63;;;7.20;94.20;;;;;;6123938;23;20031;-90
2022/02/08 01:35:05;;;;;;;33.22;15.05;;;7.20;94.30;;;;;;6150733;23;20027;-90
2022/02/08 01:48:13;;;;;;;32.72;16.52;;;7.30;94.60;;;;;;6174652;23;20016;-91
2022/02/08 01:50:44;;;;;;;28.17;16.48;;;7.30;94.70;;;;;;6172480;23;20057;-89
2022/02/08 01:53:18;;;;;;;32.88;16.27;;;7.40;94.70;;;;;;6147690;23;20012;-90
2022/02/08 01:55:46;;;;;;;36.10;16.83;;;7.40;94.80;;;;;;6152312;23;20027;-90
2022/02/08 01:58:21;;;;;;;34.08;17.48;;;7.40;94.80;;;;;;6176468;23;20048;-90
2022/02/08 02:00:47;;;;;;;29.85;16.35;;;7.40;95.00;;;;;;6181641;23;20019;-88
2022/02/08 02:03:26;;;;;;;32.08;17.90;;;7.40;95.00;;;;;;6146646;23;20338;-89
2022/02/08 02:06:02;;;;;;;;;;;;;;;;;;;;;
2022/02/08 02:08:36;;;;;;;36.17;18.40;;;7.50;95.10;;;;;;6168128;23;20020;-88
2022/02/08 02:11:11;;;;;;;32.47;17.27;;;7.50;95.10;;;;;;6145237;23;20444;-91
2022/02/08 02:13:49;;;;;;;33.60;15.60;;;7.50;95.10;;;;;;6166523;23;20021;-91
2022/02/08 02:17:00;;;;;;;37.00;18.40;;;7.50;95.10;;;;;;6123258;23;20024;-89
2022/02/08 02:19:09;;;;;;;38.38;19.02;;;7.50;95.30;;;;;;6142585;23;20028;-88
2022/02/08 02:21:35;;;;;;;36.70;19.23;;;7.60;95.30;;;;;;6166351;23;20013;-90
2022/02/08 02:24:03;;;;;;;39.25;18.73;;;7.60;95.40;;;;;;6166336;23;20024;-91
2022/02/08 02:26:32;;;;;;;36.72;18.17;;;7.60;95.40;;;;;;6166514;23;20075;-90
2022/02/08 02:29:00;;;;;;;38.88;20.88;;;7.60;95.50;;;;;;6140848;23;20024;-90
2022/02/08 02:31:36;;;;;;;42.45;19.88;;;7.70;95.60;;;;;;6142518;23;20017;-88
2022/02/08 02:34:03;;;;;;;39.08;19.42;;;7.70;95.70;;;;;;6145097;23;20017;-90
2022/02/08 02:36:31;;;;;;;53.55;20.30;;;7.70;95.70;;;;;;6140832;23;20025;-90
2022/02/08 02:39:07;;;;;;;38.17;19.67;;;7.70;95.60;;;;;;6166561;23;20044;-90
2022/02/08 02:41:53;;;;;;;43.90;21.38;;;7.70;95.70;;;;;;6167888;23;20040;-90
2022/02/08 02:44:22;;;;;;;47.28;21.73;;;7.70;95.90;;;;;;6164915;23;20060;-90
2022/02/08 02:46:48;;;;;;;46.22;22.45;;;7.70;95.80;;;;;;6166662;23;20156;-89
2022/02/08 02:49:14;;;;;;;48.83;22.55;;;7.80;95.90;;;;;;6165828;23;20021;-90
2022/02/08 02:51:58;;;;;;;47.70;26.25;;;7.80;95.90;;;;;;6165669;23;20048;-89
2022/02/08 02:54:29;;;;;;;37.90;20.58;;;7.80;95.90;;;;;;6146103;23;20020;-90
2022/02/08 02:56:59;;;;;;;46.22;24.95;;;7.90;96.00;;;;;;6165886;23;20456;-91
2022/02/08 02:59:26;;;;;;;43.90;23.55;;;7.90;96.00;;;;;;6166657;23;20023;-89
2022/02/08 03:04:38;;;;;;;48.88;22.40;;;7.90;96.10;;;;;;6166120;23;20017;-90
2022/02/08 03:20:52;;;;;;;37.65;19.40;;;8.00;96.10;;;;;;6170248;23;20027;-89
2022/02/08 03:23:20;;;;;;;48.80;21.83;;;8.10;96.20;;;;;;6146168;23;20070;-89
2022/02/08 03:25:49;;;;;;;36.17;18.45;;;8.10;96.30;;;;;;6170583;23;20013;-87
2022/02/08 03:28:14;;;;;;;41.15;19.17;;;8.10;96.30;;;;;;6171031;23;20095;-87
2022/02/08 03:30:40;;;;;;;40.40;18.77;;;8.10;96.30;;;;;;6145682;23;20336;-88
2022/02/08 03:33:28;;;;;;;39.45;17.40;;;8.20;96.30;;;;;;6170462;23;20344;-89
2022/02/08 03:35:55;;;;;;;38.92;17.92;;;8.20;96.30;;;;;;6174668;23;20021;-88
2022/02/08 03:38:44;;;;;;;46.42;19.27;;;8.20;96.30;;;;;;6170494;23;20060;-88
2022/02/08 03:41:13;;;;;;;39.05;17.88;;;8.20;96.30;;;;;;6155380;23;20013;-89
2022/02/08 03:43:43;;;;;;;49.50;19.63;;;8.20;96.40;;;;;;6170104;23;20188;-90
2022/02/08 03:46:15;;;;;;;39.72;17.67;;;8.20;96.40;;;;;;6147133;23;20083;-88
2022/02/08 03:48:46;;;;;;;43.37;16.97;;;8.30;96.40;;;;;;6170532;23;20016;-88
2022/02/08 03:51:16;;;;;;;41.72;17.15;;;8.30;96.40;;;;;;6172680;23;20048;-90
2022/02/08 03:53:43;;;;;;;31.17;15.30;;;8.30;96.50;;;;;;6169978;23;20056;-88
2022/02/08 03:56:20;;;;;;;33.20;16.35;;;8.40;96.80;;;;;;6144775;23;20435;-89
2022/02/08 03:58:48;;;;;;;32.58;14.98;;;8.30;96.50;;;;;;6149123;23;20028;-90
2022/02/08 04:04:08;;;;;;;33.65;15.60;;;8.40;96.50;;;;;;6149801;23;20047;-87
2022/02/08 04:06:32;;;;;;;39.25;17.48;;;8.40;96.50;;;;;;6176134;23;20033;-88
2022/02/08 04:09:02;;;;;;;34.05;15.32;;;8.40;96.50;;;;;;6141161;23;20328;-88
2022/02/08 04:11:36;;;;;;;38.45;15.57;;;8.40;96.50;;;;;;6167348;23;20025;-88
2022/02/08 04:14:19;;;;;;;35.20;14.52;;;8.40;96.50;;;;;;6169476;23;20546;-89
2022/02/08 04:16:45;;;;;;;33.47;15.10;;;8.50;96.60;;;;;;6145543;23;20021;-88
2022/02/08 04:19:30;;;;;;;33.10;14.73;;;8.50;96.50;;;;;;6142588;23;20087;-88
2022/02/08 04:33:26;;;;;;;29.92;16.63;;;8.60;96.50;;;;;;6170546;23;20020;-88
2022/02/08 04:36:09;;;;;;;33.53;15.65;;;8.60;96.50;;;;;;6154013;23;20021;-88
2022/02/08 04:38:56;;;;;;;;;;;8.60;96.50;;;;;;6149353;23;20017;-87
2022/02/08 04:41:31;;;;;;;34.97;16.65;;;8.60;96.90;;;;;;6145390;23;20223;-89
2022/02/08 04:47:03;;;;;;;;;;;;;;;;;;;;;
2022/02/08 04:49:31;;;;;;;34.80;16.52;;;8.70;96.50;;;;;;6170854;23;20115;-89
2022/02/08 04:52:07;;;;;;;36.83;15.15;;;8.70;96.50;;;;;;6143990;23;20048;-88
2022/02/08 04:55:12;;;;;;;31.77;14.43;;;8.70;96.50;;;;;;6169574;23;20036;-88
2022/02/08 05:28:28;;;;;;;29.73;12.23;;;8.80;96.50;;;;;;6170682;23;20064;-88
2022/02/08 05:41:35;;;;;;;30.02;11.48;;;8.90;96.50;;;;;;6171263;23;20021;-90
2022/02/08 05:48:45;;;;;;;25.90;11.85;;;8.90;96.40;;;;;;6168013;23;20021;-89
2022/02/08 05:51:15;;;;;;;33.45;10.57;;;8.90;96.40;;;;;;6165664;23;20448;-88
2022/02/08 05:53:43;;;;;;;26.58;10.80;;;8.90;96.40;;;;;;6171270;23;20024;-89
2022/02/08 05:56:14;;;;;;;26.58;10.32;;;8.90;96.40;;;;;;6117692;23;20068;-88
2022/02/08 05:58:42;;;;;;;23.75;10.07;;;8.90;96.40;;;;;;6166385;23;20017;-87
2022/02/08 06:01:10;;;;;;;23.52;9.88;;;8.90;96.40;;;;;;6189084;23;20013;-88
2022/02/08 06:03:38;;;;;;;27.80;9.88;;;8.90;96.40;;;;;;6166087;23;20024;-87
2022/02/08 06:06:07;;;;;;;23.05;8.80;;;8.90;96.40;;;;;;6190227;23;20013;-87
2022/02/08 06:08:35;;;;;;;22.90;8.77;;;8.90;96.40;;;;;;6190110;23;20208;-87
2022/02/08 06:11:14;;;;;;;26.55;9.40;;;8.90;96.40;;;;;;6195054;23;20028;-91
2022/02/08 06:13:41;;;;;;;23.38;8.93;;;8.90;96.40;;;;;;6147803;23;20055;-88
2022/02/08 06:16:20;;;;;;;23.15;8.80;;;8.90;96.40;;;;;;6168585;23;20075;-87
2022/02/08 06:18:46;;;;;;;32.30;8.43;;;8.90;96.30;;;;;;6193226;23;20017;-86
2022/02/08 06:21:14;;;;;;;22.02;8.32;;;8.90;96.30;;;;;;6165983;23;20028;-88
2022/02/08 06:23:40;;;;;;;28.20;9.00;;;8.90;96.30;;;;;;6192251;23;20020;-87
2022/02/08 06:26:18;;;;;;;20.83;7.93;;;8.90;96.30;;;;;;6166047;23;20078;-86
2022/02/08 06:28:46;;;;;;;17.63;7.72;;;8.90;96.30;;;;;;6192461;23;20021;-86
2022/02/08 06:31:14;;;;;;;22.38;7.18;;;8.90;96.30;;;;;;6190244;23;20028;-88
2022/02/08 06:33:40;;;;;;;21.08;6.93;;;8.90;96.20;;;;;;6141498;23;20071;-90
2022/02/08 06:36:09;;;;;;;24.83;7.65;;;8.90;96.20;;;;;;6165486;23;20380;-84
2022/02/08 06:38:34;;;;;;;24.30;7.38;;;8.90;96.20;;;;;;6165945;23;20068;-87
2022/02/08 06:41:00;;;;;;;27.25;7.85;;;8.90;96.20;;;;;;6166713;23;20021;-84
2022/02/08 06:43:31;;;;;;;23.52;7.40;;;8.90;96.20;;;;;;6167296;23;20377;-84
2022/02/08 06:45:57;;;;;;;22.58;6.22;;;8.90;96.20;;;;;;6141842;23;20052;-78
2022/02/08 06:48:23;;;;;;;25.73;6.53;;;8.90;96.10;;;;;;6165848;23;20013;-83
2022/02/08 06:50:52;;;;;;;19.40;6.40;;;8.90;96.10;;;;;;6213838;23;20585;-81
2022/02/08 06:53:17;;;;;;;16.98;6.03;;;9.00;96.10;;;;;;6212017;23;20016;-84
2022/02/08 06:55:44;;;;;;;22.17;6.10;;;9.00;96.10;;;;;;6156403;23;20328;-84
2022/02/08 06:58:16;;;;;;;18.83;6.50;;;9.00;96.10;;;;;;6186485;23;20085;-85
2022/02/08 07:00:47;;;;;;;17.03;5.77;;;9.00;96.00;;;;;;6213010;23;20212;-83
2022/02/08 07:03:16;;;;;;;17.60;5.25;;;9.00;96.00;;;;;;6189493;23;20237;-81
2022/02/08 07:05:45;;;;;;;15.93;5.00;;;9.00;95.90;;;;;;6190595;23;20140;-83
2022/02/08 07:08:34;;;;;;;21.35;5.57;;;9.00;95.90;;;;;;6214783;23;20017;-83
2022/02/08 07:11:02;;;;;;;19.60;5.10;;;9.00;95.90;;;;;;6167071;23;20325;-84
2022/02/08 07:13:28;;;;;;;18.50;5.60;;;9.00;95.80;;;;;;6191163;23;20047;-84
2022/02/08 07:15:54;;;;;;;17.73;4.57;;;9.00;95.80;;;;;;6215586;23;20080;-81
2022/02/08 07:18:20;;;;;;;19.45;5.43;;;9.00;95.80;;;;;;6216508;23;20028;-82
2022/02/08 07:20:46;;;;;;;19.35;5.20;;;9.00;95.70;;;;;;6191420;23;20025;-81
2022/02/08 07:23:12;;;;;;;17.95;5.60;;;9.00;95.70;;;;;;6189254;23;20029;-88
2022/02/08 07:25:38;;;;;;;21.35;5.07;;;9.10;95.70;;;;;;6164115;23;20020;-87
2022/02/08 07:28:04;;;;;;;16.65;4.50;;;9.10;95.70;;;;;;6167121;23;20021;-81
2022/02/08 07:30:32;;;;;;;15.35;5.20;;;9.10;95.60;;;;;;6165997;23;20070;-81
2022/02/08 07:33:10;;;;;;;13.60;4.45;;;9.10;95.60;;;;;;6215555;23;20024;-92
2022/02/08 07:35:45;;;;;;;17.00;5.50;;;9.10;95.60;;;;;;6167045;23;20096;-84
2022/02/08 07:38:36;;;;;;;16.35;4.45;;;9.10;95.50;;;;;;6168476;23;20028;-84
2022/02/08 07:43:33;;;;;;;16.33;4.50;;;9.10;95.40;;;;;;6195067;23;20347;-84
2022/02/08 07:45:59;;;;;;;14.70;4.10;;;9.10;95.40;;;;;;6218733;23;20037;-84
2022/02/08 07:48:27;;;;;;;20.77;4.90;;;9.10;95.40;;;;;;6168646;23;20021;-84
2022/02/08 07:51:05;;;;;;;19.92;5.22;;;9.20;95.30;;;;;;6193811;23;20467;-83
2022/02/08 07:53:31;;;;;;;21.00;4.80;;;9.20;95.30;;;;;;6144718;23;20441;-83
2022/02/08 07:56:05;;;;;;;18.20;3.78;;;9.20;95.20;;;;;;6193770;23;20044;-83
2022/02/08 07:58:56;;;;;;;13.20;4.13;;;9.30;95.20;;;;;;6169197;23;20017;-84
2022/02/08 08:01:22;;;;;;;21.55;5.38;;;9.30;95.10;;;;;;6168696;23;20025;-84
2022/02/08 08:03:50;;;;;;;12.50;3.95;;;9.30;95.00;;;;;;6193242;23;20028;-83
2022/02/08 08:06:21;;;;;;;18.27;4.97;;;9.40;95.00;;;;;;6169500;23;20017;-88
2022/02/08 08:08:51;;;;;;;16.75;4.40;;;9.40;94.90;;;;;;6218722;23;20024;-83
2022/02/08 08:11:22;;;;;;;15.40;4.40;;;9.40;94.90;;;;;;6218288;23;20092;-83
2022/02/08 08:14:01;;;;;;;22.40;5.32;;;9.50;94.80;;;;;;6169873;23;20021;-83
2022/02/08 08:16:41;;;;;;;17.00;3.95;;;9.50;94.70;;;;;;6169859;23;20344;-83
2022/02/08 08:21:37;;;;;;;15.60;4.65;;;9.50;94.60;;;;;;6217520;23;20024;-84
2022/02/08 08:24:05;;;;;;;18.77;4.97;;;9.50;94.60;;;;;;6218353;23;20063;-83
2022/02/08 08:26:37;;;;;;;19.95;5.25;;;9.60;94.50;;;;;;6192787;23;20013;-83
2022/02/08 08:29:05;;;;;;;21.52;5.88;;;9.60;94.50;;;;;;6193248;23;20031;-83
2022/02/08 08:31:34;;;;;;;19.38;4.05;;;9.60;94.40;;;;;;6168584;23;20048;-83
2022/02/08 08:34:00;;;;;;;16.05;4.18;;;9.60;94.40;;;;;;6218883;23;20020;-83
2022/02/08 08:36:28;;;;;;;19.67;4.63;;;9.60;94.30;;;;;;6193249;23;20017;-85
2022/02/08 08:39:02;;;;;;;12.20;3.53;;;9.70;94.30;;;;;;6168861;23;20025;-83
2022/02/08 08:41:36;;;;;;;15.73;4.30;;;9.70;94.20;;;;;;6145000;23;20017;-82
2022/02/08 08:44:39;;;;;;;16.48;4.07;;;9.70;94.20;;;;;;6145131;23;20348;-82
2022/02/08 08:52:10;;;;;;;16.08;4.05;;;9.80;94.00;;;;;;6189636;23;20028;-82
2022/02/08 08:54:36;;;;;;;17.20;4.15;;;9.90;94.30;;;;;;6190063;23;20088;-82
2022/02/08 08:57:05;;;;;;;14.40;4.43;;;9.90;93.90;;;;;;6192003;23;20025;-83
2022/02/08 08:59:33;;;;;;;22.35;4.45;;;9.90;93.80;;;;;;6192916;23;20073;-82
2022/02/08 09:01:59;;;;;;;17.85;3.95;;;9.90;93.70;;;;;;6218293;23;20059;-83
2022/02/08 09:04:33;;;;;;;14.15;4.22;;;10.00;93.70;;;;;;6192441;23;20016;-82
2022/02/08 09:07:02;;;;;;;16.95;4.57;;;10.00;93.60;;;;;;6168172;23;20021;-83
2022/02/08 09:09:32;;;;;;;18.13;3.83;;;10.10;93.50;;;;;;6167266;23;20059;-83
2022/02/08 09:12:10;;;;;;;18.27;3.85;;;10.10;93.40;;;;;;6167733;23;20023;-83
2022/02/08 09:31:04;;;;;;;13.50;3.88;;;10.50;92.70;;;;;;6192690;23;20025;-82
2022/02/08 09:33:30;;;;;;;13.82;3.53;;;10.50;92.70;;;;;;6167698;23;20028;-82
2022/02/08 09:36:00;;;;;;;10.00;3.42;;;10.60;92.60;;;;;;6191562;23;20440;-82
2022/02/08 09:38:30;;;;;;;14.45;3.80;;;10.70;92.70;;;;;;6167554;23;20071;-82
2022/02/08 09:41:01;;;;;;;16.80;4.28;;;10.70;92.40;;;;;;6167203;23;20021;-82
2022/02/08 09:43:31;;;;;;;12.02;3.47;;;10.80;92.30;;;;;;6166538;23;20013;-83
2022/02/08 09:46:00;;;;;;;13.65;3.88;;;10.80;92.20;;;;;;6166584;23;20052;-82
2022/02/08 09:48:44;;;;;;;13.65;3.70;;;10.80;92.20;;;;;;6192256;23;20017;-83
2022/02/08 09:51:11;;;;;;;11.57;3.38;;;10.80;92.10;;;;;;6142519;23;20344;-83
2022/02/08 09:53:45;;;;;;;17.98;4.32;;;10.80;92.00;;;;;;6191782;23;20049;-83
2022/02/08 09:56:22;;;;;;;12.45;3.63;;;10.70;92.00;;;;;;6167155;23;20021;-83
2022/02/08 09:58:59;;;;;;;11.52;3.65;;;10.70;92.00;;;;;;6165996;23;20458;-83
2022/02/08 10:01:28;;;;;;;15.80;3.83;;;10.70;91.90;;;;;;6167108;23;20031;-83
2022/02/08 10:03:55;;;;;;;16.33;5.40;;;10.70;91.90;;;;;;6166221;23;20021;-83
2022/02/08 10:06:23;;;;;;;13.43;3.30;;;10.70;91.90;;;;;;6166586;23;20017;-82
2022/02/08 10:09:08;;;;;;;21.45;3.88;;;10.70;91.80;;;;;;6159405;23;20096;-82
2022/02/08 10:22:30;;;;;;;15.95;3.22;;;11.00;91.50;;;;;;6168774;23;20083;-82
2022/02/08 10:25:01;;;;;;;15.13;3.85;;;11.10;91.40;;;;;;6191823;23;20020;-83
2022/02/08 10:30:17;;;;;;;15.10;3.00;;;11.10;91.30;;;;;;6191799;23;20021;-83
2022/02/08 10:38:20;;;;;;;15.40;3.08;;;11.20;91.10;;;;;;6191435;23;20025;-82
2022/02/08 10:40:48;;;;;;;10.60;3.22;;;11.30;91.10;;;;;;6216347;23;20021;-83
2022/02/08 10:43:19;;;;;;;13.55;3.33;;;11.30;91.00;;;;;;6190892;23;20020;-83
2022/02/08 10:45:45;;;;;;;9.60;3.22;;;11.40;91.00;;;;;;6164583;23;20013;-84
2022/02/08 10:48:18;;;;;;;12.80;2.72;;;11.40;90.90;;;;;;6164286;23;20072;-83
2022/02/08 10:50:50;;;;;;;10.77;3.42;;;11.50;90.90;;;;;;6165134;23;20025;-85
2022/02/08 10:53:18;;;;;;;10.93;2.97;;;11.50;90.80;;;;;;6191521;23;20028;-83
2022/02/08 10:56:02;;;;;;;16.38;2.85;;;11.60;90.80;;;;;;6191791;23;20339;-87
2022/02/08 10:58:36;;;;;;;10.38;3.13;;;11.60;90.60;;;;;;6169064;23;20088;-84
2022/02/08 11:01:11;;;;;;;14.52;2.95;;;11.70;90.60;;;;;;6143733;23;20025;-83
2022/02/08 11:03:48;;;;;;;13.27;4.10;;;11.90;90.50;;;;;;6191649;23;20043;-82
2022/02/08 11:14:58;;;;;;;15.82;3.47;;;12.30;89.80;;;;;;6174610;23;20024;-83
2022/02/08 11:18:12;;;;;;;8.77;3.13;;;12.30;89.20;;;;;;6168865;23;20027;-84
2022/02/08 11:20:29;;;;;;;10.43;2.63;;;12.20;89.40;;;;;;6172590;23;20064;-83
2022/02/08 11:23:05;;;;;;;16.70;2.95;;;12.20;89.60;;;;;;6169848;23;20023;-83
2022/02/08 11:25:38;;;;;;;11.07;3.40;;;12.20;89.50;;;;;;6171032;23;20020;-82
2022/02/08 11:28:21;;;;;;;12.25;2.95;;;12.10;89.40;;;;;;6144691;23;20517;-85
2022/02/08 11:39:03;;;;;;;14.77;3.30;;;12.10;89.50;;;;;;6161611;23;20075;-84
2022/02/08 11:51:32;;;;;;;15.25;3.10;;;12.20;89.20;;;;;;6193451;23;20032;-83
2022/02/08 11:56:43;;;;;;;12.48;3.58;;;12.10;89.30;;;;;;6168420;23;20298;-84
2022/02/08 12:09:38;;;;;;;17.02;4.20;;;11.90;89.20;;;;;;6193462;23;20029;-84
2022/02/08 12:48:29;;;;;;;16.38;3.92;;;11.90;89.10;;;;;;6188447;23;20021;-90
2022/02/08 12:58:34;;;;;;;13.75;3.47;;;11.70;89.50;;;;;;6192453;23;20360;-88
2022/02/08 13:01:20;;;;;;;15.27;3.55;;;11.70;89.50;;;;;;6189940;23;20024;-82
2022/02/08 13:14:16;;;;;;;15.82;3.05;;;11.80;89.60;;;;;;6190625;23;20025;-80
2022/02/08 14:05:01;;;;;;;17.77;3.67;;;11.70;89.60;;;;;;6192248;23;20056;-80
2022/02/08 14:19:52;;;;;;;18.20;3.55;;;11.60;89.80;;;;;;6191455;23;20021;-81
2022/02/08 14:22:53;;;;;;;13.77;3.25;;;11.60;89.80;;;;;;6168492;23;20384;-83
2022/02/08 14:25:26;;;;;;;14.02;3.10;;;11.50;89.80;;;;;;6166438;23;20023;-84
2022/02/08 14:31:12;;;;;;;12.98;3.40;;;11.50;89.70;;;;;;6191150;23;20048;-81
2022/02/08 14:36:30;;;;;;;12.13;3.65;;;11.40;89.80;;;;;;6190990;23;20456;-79
2022/02/08 15:08:52;;;;;;;16.27;3.88;;;11.20;90.00;;;;;;6164557;23;20076;-78
2022/02/08 15:11:18;;;;;;;14.00;3.85;;;11.30;90.10;;;;;;6212518;23;20028;-74
2022/02/08 15:13:47;;;;;;;15.00;3.67;;;11.30;89.80;;;;;;6189457;23;20013;-76
2022/02/08 15:16:23;;;;;;;13.27;3.90;;;11.40;89.90;;;;;;6190547;23;20017;-80
2022/02/08 15:18:49;;;;;;;13.35;3.03;;;11.40;89.60;;;;;;6143511;23;20064;-79
2022/02/08 15:21:29;;;;;;;17.80;3.53;;;11.40;89.60;;;;;;6190469;23;20331;-81
2022/02/08 15:23:54;;;;;;;13.60;3.55;;;11.30;89.50;;;;;;6169593;23;20312;-80
2022/02/08 15:26:22;;;;;;;12.80;3.50;;;11.40;89.80;;;;;;6141913;23;20052;-82
2022/02/08 15:28:48;;;;;;;16.48;4.05;;;11.30;89.90;;;;;;6165350;23;20021;-79
2022/02/08 15:31:14;;;;;;;14.13;3.35;;;11.30;90.00;;;;;;6165875;23;20021;-77
2022/02/08 15:33:40;;;;;;;13.25;3.20;;;11.30;90.00;;;;;;6163609;23;20083;-75
2022/02/08 15:36:09;;;;;;;13.45;3.95;;;11.30;90.00;;;;;;6190700;23;20017;-78
2022/02/08 15:38:37;;;;;;;14.80;4.63;;;11.30;90.00;;;;;;6166393;23;20038;-77
2022/02/08 15:41:03;;;;;;;18.45;4.25;;;11.30;90.00;;;;;;6190951;23;20032;-79
2022/02/08 15:43:29;;;;;;;12.82;3.63;;;11.20;90.00;;;;;;6214544;23;20028;-82
2022/02/08 15:48:24;;;;;;;17.63;4.30;;;11.20;90.00;;;;;;6215188;23;20057;-78
2022/02/08 16:22:57;;;;;;;13.38;3.83;;;10.90;90.20;;;;;;6180944;23;20470;-80
2022/02/08 16:33:44;;;;;;;16.02;3.85;;;10.90;90.40;;;;;;6213268;23;20025;-79
2022/02/08 16:49:00;;;;;;;14.18;3.72;;;10.80;90.90;;;;;;6189877;23;20025;-87
2022/02/08 16:57:41;;;;;;;11.77;3.70;;;10.80;90.60;;;;;;6190877;23;20036;-78
2022/02/08 17:00:09;;;;;;;10.20;3.83;;;10.80;90.60;;;;;;6166815;23;20072;-78
2022/02/08 17:02:39;;;;;;;18.67;4.70;;;10.80;90.70;;;;;;6188574;23;20021;-77
2022/02/08 17:05:05;;;;;;;14.10;4.88;;;10.70;90.70;;;;;;6165705;23;20024;-79
2022/02/08 17:07:37;;;;;;;15.43;3.40;;;10.70;90.70;;;;;;6189375;23;20052;-87
2022/02/08 17:10:06;;;;;;;14.77;3.75;;;10.80;90.70;;;;;;6195876;23;20051;-91
2022/02/08 17:12:43;;;;;;;14.18;3.38;;;10.80;90.80;;;;;;6198889;23;20017;-94
2022/02/08 17:44:55;;;;;;;16.02;4.32;;;10.60;91.20;;;;;;6195819;23;20021;-87
2022/02/08 17:48:09;;;;;;;12.43;3.70;;;10.60;91.20;;;;;;6193978;23;20031;-79
2022/02/08 17:50:35;;;;;;;11.70;4.03;;;10.60;91.20;;;;;;6168541;23;20024;-77
2022/02/08 17:53:01;;;;;;;14.52;4.03;;;10.60;91.20;;;;;;6168984;23;20044;-79
2022/02/08 17:55:29;;;;;;;15.07;5.55;;;10.60;91.20;;;;;;6218282;23;20331;-78
2022/02/08 17:57:55;;;;;;;14.30;4.13;;;10.60;91.20;;;;;;6168997;23;20383;-83
2022/02/08 18:00:21;;;;;;;14.60;4.05;;;10.60;91.20;;;;;;6169461;23;20075;-81
2022/02/08 18:02:48;;;;;;;14.85;3.67;;;10.60;91.20;;;;;;6194208;23;20016;-81
2022/02/08 18:05:14;;;;;;;14.60;3.70;;;10.60;91.30;;;;;;6194968;23;20013;-86
2022/02/08 18:07:40;;;;;;;11.32;4.25;;;10.60;91.40;;;;;;6195235;23;20017;-84
2022/02/08 18:10:07;;;;;;;12.57;4.03;;;10.60;91.40;;;;;;6218198;23;20069;-86
2022/02/08 18:12:34;;;;;;;13.50;4.38;;;10.60;91.50;;;;;;6164462;23;20340;-89
2022/02/08 18:15:05;;;;;;;16.00;4.10;;;10.60;91.60;;;;;;6193096;23;20052;-86
2022/02/08 18:17:38;;;;;;;13.63;4.78;;;10.60;91.70;;;;;;6195089;23;20052;-90
2022/02/08 18:22:51;;;;;;;10.80;3.33;;;10.50;91.70;;;;;;6194946;23;20027;-84
2022/02/08 18:25:36;;;;;;;11.55;4.38;;;10.50;91.70;;;;;;6172311;23;20019;-85
2022/02/08 19:14:15;;;;;;;14.60;5.60;;;10.40;92.10;;;;;;6174040;23;20020;-87
2022/02/08 19:21:45;;;;;;;9.77;4.55;;;10.30;92.20;;;;;;6169509;23;20024;-87
2022/02/08 19:24:19;;;;;;;11.13;5.00;;;10.30;92.20;;;;;;6169980;23;20020;-87
2022/02/08 19:26:51;;;;;;;10.85;4.97;;;10.30;92.30;;;;;;6169893;23;20023;-87
2022/02/08 19:29:17;;;;;;;14.07;4.68;;;10.30;92.30;;;;;;6145680;23;20343;-88
2022/02/08 19:31:43;;;;;;;11.18;5.15;;;10.30;92.40;;;;;;6170465;23;20024;-89
2022/02/08 19:34:09;;;;;;;11.85;5.45;;;10.20;92.40;;;;;;6171213;23;20028;-88
2022/02/08 19:36:38;;;;;;;14.82;5.20;;;10.20;92.50;;;;;;6195919;23;20062;-88
2022/02/08 19:39:09;;;;;;;10.82;4.88;;;10.20;92.60;;;;;;6171785;23;20021;-86
2022/02/08 19:41:40;;;;;;;14.35;5.20;;;10.20;92.70;;;;;;6146900;23;20473;-89
2022/02/08 19:44:07;;;;;;;20.85;6.75;;;10.10;92.70;;;;;;6171527;23;20463;-88
2022/02/08 19:46:43;;;;;;;12.27;5.53;;;10.10;92.80;;;;;;6171551;23;20068;-92
2022/02/08 19:49:13;;;;;;;15.85;6.05;;;10.10;92.90;;;;;;6170332;23;20024;-86
2022/02/08 19:51:41;;;;;;;10.05;5.63;;;10.10;93.00;;;;;;6195841;23;20427;-88
2022/02/08 19:54:09;;;;;;;14.32;6.50;;;10.00;93.10;;;;;;6171441;23;20035;-86
2022/02/08 19:56:51;;;;;;;10.70;6.65;;;10.00;93.20;;;;;;6171715;23;20044;-86
2022/02/08 19:59:30;;;;;;;10.45;7.10;;;10.00;93.30;;;;;;6149243;23;20050;-86
2022/02/08 20:01:56;;;;;;;15.75;7.97;;;10.00;93.40;;;;;;6148541;23;20017;-86
2022/02/08 20:04:23;;;;;;;12.85;8.02;;;10.00;93.40;;;;;;6146531;23;20455;-88
2022/02/08 20:06:54;;;;;;;17.05;9.73;;;10.00;93.50;;;;;;6195449;23;20021;-88
2022/02/08 20:09:20;;;;;;;18.75;8.95;;;10.00;93.60;;;;;;6170903;23;20339;-85
2022/02/08 20:11:45;;;;;;;11.95;8.60;;;9.90;93.60;;;;;;6170874;23;20024;-84
2022/02/08 20:14:12;;;;;;;14.93;9.25;;;9.90;93.70;;;;;;6195617;23;20370;-86
2022/02/08 20:16:38;;;;;;;17.75;9.50;;;9.90;93.70;;;;;;6145954;23;20013;-83
2022/02/08 20:19:08;;;;;;;15.90;9.15;;;9.90;93.80;;;;;;6145756;23;20020;-86
2022/02/08 20:21:39;;;;;;;16.58;9.40;;;9.90;93.80;;;;;;6170261;23;20028;-81
2022/02/08 20:24:08;;;;;;;14.05;7.65;;;9.90;93.90;;;;;;6196682;23;20358;-87
2022/02/08 20:29:03;;;;;;;13.98;8.77;;;10.20;94.10;;;;;;6171555;23;20040;-85
2022/02/08 20:31:29;;;;;;;18.58;8.95;;;10.20;93.80;;;;;;6193988;23;20052;-85
2022/02/08 20:33:55;;;;;;;17.08;9.43;;;10.10;93.80;;;;;;6221600;23;20013;-85
2022/02/08 20:36:21;;;;;;;14.57;9.40;;;10.10;93.80;;;;;;6195458;23;20013;-85
2022/02/08 20:38:48;;;;;;;15.25;8.65;;;10.00;93.90;;;;;;6196408;23;20028;-84
2022/02/08 20:41:23;;;;;;;16.52;9.82;;;10.00;93.90;;;;;;6171028;23;20025;-86
2022/02/08 20:43:49;;;;;;;15.45;10.63;;;10.00;94.00;;;;;;6218768;23;20083;-83
2022/02/08 20:46:17;;;;;;;14.98;9.70;;;9.90;94.00;;;;;;6169304;23;20017;-88
2022/02/08 20:48:47;;;;;;;16.33;10.18;;;9.90;94.10;;;;;;6170634;23;20020;-84
2022/02/08 20:51:13;;;;;;;19.40;9.95;;;9.90;94.10;;;;;;6171246;23;20020;-85
2022/02/08 20:53:59;;;;;;;18.98;10.32;;;9.90;94.20;;;;;;6220452;23;20024;-82
2022/02/08 20:56:29;;;;;;;17.05;10.63;;;9.90;94.20;;;;;;6153872;23;20012;-81
2022/02/08 21:01:38;;;;;;;18.95;11.30;;;9.80;94.20;;;;;;6171428;23;20019;-82
2022/02/08 21:04:20;;;;;;;16.10;10.23;;;9.80;94.30;;;;;;6173357;23;20032;-83
2022/02/08 21:06:48;;;;;;;16.67;10.98;;;9.80;94.40;;;;;;6170887;23;20071;-80